Time;durP1;ratioP1;P1;durP2;ratioP2;P2;SDS_P1;SDS_P2;PMS_P1;PMS_P2;Temp;Humidity;BMP_temperature;BMP_pressure;BME280_temperature;BME280_humidity;BME280_pressure;Samples;Min_cycle;Max_cycle;Signal;HPM_P1;HPM_P2
2023/04/13 00:01:58;;;;;;;3.80;3.20;;;;;;;21.04;59.48;98294.08;104698;1254;60463;-63
2023/04/13 00:04:29;;;;;;;5.70;3.20;;;;;;;21.07;59.26;98295.94;104678;1262;73290;-64
2023/04/13 00:07:02;;;;;;;3.60;3.30;;;;;;;21.15;58.95;98301.80;104452;1267;69256;-63
2023/04/13 00:09:32;;;;;;;3.50;3.20;;;;;;;21.12;59.16;98303.04;104765;1263;71953;-63
2023/04/13 00:12:00;;;;;;;3.80;3.40;;;;;;;21.12;59.04;98308.08;104748;1253;61225;-63
2023/04/13 00:14:34;;;;;;;3.10;2.80;;;;;;;21.14;59.05;98313.53;104661;1250;60552;-63
2023/04/13 00:17:06;;;;;;;3.20;2.90;;;;;;;21.16;58.74;98311.19;104740;1250;73805;-64
2023/04/13 00:19:36;;;;;;;4.40;3.40;;;;;;;21.16;58.55;98310.95;104485;1266;69878;-63
2023/04/13 00:22:08;;;;;;;3.30;3.00;;;;;;;21.17;58.52;98312.11;104634;1250;71451;-63
2023/04/13 00:24:42;;;;;;;3.90;3.30;;;;;;;21.21;58.36;98307.62;106683;1250;62016;-64
2023/04/13 00:27:13;;;;;;;4.60;3.00;;;;;;;21.27;58.11;98306.95;107094;1250;60648;-64
2023/04/13 00:29:41;;;;;;;3.20;2.90;;;;;;;21.27;57.90;98306.42;104860;1253;73387;-63
2023/04/13 00:32:11;;;;;;;4.60;2.80;;;;;;;21.27;57.81;98307.14;104862;1258;69300;-63
2023/04/13 00:34:44;;;;;;;3.40;3.10;;;;;;;21.24;57.84;98302.50;104775;1253;72258;-65
2023/04/13 00:37:13;;;;;;;3.20;2.90;;;;;;;21.18;58.02;98296.36;104777;1251;61239;-63
2023/04/13 00:39:45;;;;;;;4.90;3.10;;;;;;;21.12;58.27;98293.02;104409;1251;60555;-63
2023/04/13 00:42:14;;;;;;;3.20;2.90;;;;;;;21.10;58.40;98285.59;104659;1253;72872;-62
2023/04/13 00:44:43;;;;;;;6.70;3.00;;;;;;;21.15;58.35;98276.88;104461;1256;69806;-62
2023/04/13 00:47:13;;;;;;;3.30;3.00;;;;;;;21.19;58.18;98272.54;104786;1262;72823;-62
2023/04/13 00:49:42;;;;;;;5.30;3.20;;;;;;;21.19;58.14;98281.83;104677;1260;60850;-62
2023/04/13 00:52:12;;;;;;;6.70;2.80;;;;;;;21.08;58.59;98281.59;104653;1251;60575;-63
2023/04/13 00:54:42;;;;;;;3.70;3.20;;;;;;;21.03;58.72;98279.14;104326;1268;73092;-63
2023/04/13 00:57:11;;;;;;;4.70;3.20;;;;;;;20.98;58.86;98276.07;104630;1253;69770;-63
2023/04/13 00:59:39;;;;;;;2.90;2.70;;;;;;;20.99;59.00;98283.55;104305;1262;72644;-63
2023/04/13 01:02:09;;;;;;;3.40;3.10;;;;;;;21.03;58.89;98271.95;104727;1254;60853;-63
2023/04/13 01:04:44;;;;;;;3.10;2.80;;;;;;;21.03;58.72;98266.79;104713;1255;60470;-62
2023/04/13 01:07:24;;;;;;;2.90;2.70;;;;;;;20.98;58.68;98276.20;104391;1251;73020;-63
2023/04/13 01:10:36;;;;;;;3.00;2.70;;;;;;;21.03;58.68;98283.17;104316;1272;69124;-63
2023/04/13 01:13:30;;;;;;;3.30;3.00;;;;;;;20.99;58.66;98284.61;104393;1254;72566;-63
2023/04/13 01:16:19;;;;;;;4.30;3.10;;;;;;;20.93;58.67;98286.65;104589;1250;61207;-64
2023/04/13 01:18:50;;;;;;;4.30;2.70;;;;;;;20.99;58.62;98269.55;104391;1250;60521;-63
2023/04/13 01:21:21;;;;;;;4.00;2.90;;;;;;;20.94;58.55;98275.73;104639;1253;72960;-62
2023/04/13 01:24:22;;;;;;;6.10;3.60;;;;;;;20.91;58.78;98288.34;104279;1270;70216;-63
2023/04/13 01:26:57;;;;;;;5.20;2.60;;;;;;;20.98;58.60;98283.82;104726;1251;72286;-63
2023/04/13 01:29:25;;;;;;;2.90;2.60;;;;;;;20.97;58.21;98280.48;104434;1257;62009;-62
2023/04/13 01:31:53;;;;;;;7.00;2.80;;;;;;;20.96;58.36;98285.84;104385;1261;61191;-62
2023/04/13 01:34:22;;;;;;;10.20;3.50;;;;;;;20.99;58.00;98282.35;104328;1251;73710;-62
2023/04/13 01:36:50;;;;;;;4.50;3.20;;;;;;;20.94;58.02;98276.98;104322;1256;70175;-62
2023/04/13 01:39:19;;;;;;;4.80;3.20;;;;;;;20.90;58.24;98275.31;104296;1272;72621;-63
2023/04/13 01:41:54;;;;;;;4.20;3.10;;;;;;;20.87;58.32;98277.39;104317;1270;62277;-63
2023/04/13 01:44:31;;;;;;;3.30;2.80;;;;;;;20.85;58.30;98283.63;104406;1253;60500;-66
2023/04/13 01:47:14;;;;;;;3.90;3.40;;;;;;;20.92;58.22;98276.73;104580;1255;74379;-62
2023/04/13 01:50:09;;;;;;;3.60;3.30;;;;;;;20.97;58.02;98273.99;104643;1253;70305;-62
2023/04/13 01:52:49;;;;;;;3.80;3.40;;;;;;;20.95;58.14;98278.33;104626;1254;71873;-63
2023/04/13 01:55:17;;;;;;;4.00;3.00;;;;;;;20.93;57.93;98285.44;104420;1250;61262;-62
2023/04/13 01:57:53;;;;;;;4.30;3.80;;;;;;;20.97;57.74;98288.63;104421;1252;59933;-63
2023/04/13 02:00:30;;;;;;;5.00;3.10;;;;;;;20.99;57.53;98285.16;104811;1253;74303;-62
2023/04/13 02:03:00;;;;;;;5.30;3.80;;;;;;;20.99;57.26;98288.72;104354;1256;68941;-62
2023/04/13 02:05:30;;;;;;;4.10;3.30;;;;;;;20.99;57.33;98282.85;104408;1251;72588;-62
2023/04/13 02:07:59;;;;;;;3.80;3.50;;;;;;;20.97;57.19;98286.31;104333;1253;62038;-62
2023/04/13 02:10:28;;;;;;;4.50;3.50;;;;;;;20.97;57.48;98291.62;104385;1250;60601;-62
2023/04/13 02:12:59;;;;;;;4.60;3.60;;;;;;;21.03;57.24;98292.40;104731;1272;75483;-62
2023/04/13 02:15:29;;;;;;;8.40;3.80;;;;;;;21.09;56.94;98293.77;104494;1256;69058;-62
2023/04/13 02:17:59;;;;;;;3.50;3.20;;;;;;;21.12;56.84;98291.08;104735;1253;72474;-62
2023/04/13 02:20:29;;;;;;;5.60;3.50;;;;;;;21.12;56.64;98281.42;104423;1255;62199;-63
2023/04/13 02:23:02;;;;;;;3.80;3.50;;;;;;;21.08;56.70;98274.60;104582;1264;60553;-63
2023/04/13 02:25:31;;;;;;;3.80;3.20;;;;;;;20.97;57.05;98273.39;104736;1251;72818;-62
2023/04/13 02:28:00;;;;;;;3.30;2.90;;;;;;;20.91;57.53;98274.65;104315;1257;69878;-63
2023/04/13 02:30:28;;;;;;;4.10;3.20;;;;;;;20.87;57.45;98272.78;104345;1253;72522;-63
2023/04/13 02:32:59;;;;;;;4.90;3.40;;;;;;;20.81;57.69;98275.16;104468;1267;62407;-63
2023/04/13 02:35:29;;;;;;;4.30;3.30;;;;;;;20.79;57.67;98276.30;104660;1251;60749;-65
2023/04/13 02:37:58;;;;;;;3.90;3.10;;;;;;;20.83;57.44;98276.59;104345;1251;74349;-63
2023/04/13 02:40:27;;;;;;;4.50;3.20;;;;;;;20.84;57.41;98283.42;104640;1255;69053;-63
2023/04/13 02:42:58;;;;;;;3.80;3.20;;;;;;;20.83;57.39;98286.59;104628;1266;71705;-63
2023/04/13 02:45:28;;;;;;;3.30;3.00;;;;;;;20.81;57.38;98285.52;104394;1250;62108;-63
2023/04/13 02:48:05;;;;;;;3.90;3.60;;;;;;;20.75;57.51;98283.11;104630;1252;60451;-63
2023/04/13 02:50:34;;;;;;;3.90;3.20;;;;;;;20.76;57.24;98282.67;104535;1266;73843;-63
2023/04/13 02:53:06;;;;;;;5.10;3.80;;;;;;;20.79;57.36;98289.16;104720;1262;69250;-64
2023/04/13 02:55:42;;;;;;;4.00;3.60;;;;;;;20.80;57.29;98289.52;104801;1258;71782;-63
2023/04/13 02:58:12;;;;;;;4.70;3.80;;;;;;;20.82;57.30;98293.24;104514;1255;61222;-64
2023/04/13 03:00:43;;;;;;;4.10;3.80;;;;;;;20.80;57.26;98292.98;104374;1265;60032;-64
2023/04/13 03:03:19;;;;;;;4.20;3.80;;;;;;;20.78;57.16;98284.08;104286;1254;73876;-63
2023/04/13 03:05:50;;;;;;;4.40;4.00;;;;;;;20.74;57.10;98286.08;104601;1271;69987;-64
2023/04/13 03:08:22;;;;;;;5.10;4.20;;;;;;;20.76;57.25;98290.99;104712;1253;72436;-64
2023/04/13 03:11:25;;;;;;;3.90;3.40;;;;;;;20.75;57.12;98296.29;104470;1251;61319;-64
2023/04/13 03:14:21;;;;;;;3.50;3.20;;;;;;;20.77;57.17;98291.12;104588;1260;60549;-64
2023/04/13 03:17:02;;;;;;;4.20;3.60;;;;;;;20.84;56.50;98288.73;104630;1251;73810;-63
2023/04/13 03:19:37;;;;;;;3.60;3.30;;;;;;;20.77;56.87;98301.81;104781;1266;70032;-66
2023/04/13 03:22:07;;;;;;;3.80;3.30;;;;;;;20.72;57.24;98299.85;104533;1254;72450;-63
2023/04/13 03:24:38;;;;;;;5.60;3.80;;;;;;;20.72;57.11;98307.30;104662;1253;61480;-64
2023/04/13 03:27:08;;;;;;;5.90;3.30;;;;;;;20.67;57.31;98305.74;104640;1250;60529;-63
2023/04/13 03:29:41;;;;;;;3.80;3.40;;;;;;;20.66;57.35;98307.42;104762;1250;73800;-63
2023/04/13 03:32:12;;;;;;;4.10;3.80;;;;;;;20.71;57.27;98311.02;104835;1251;69847;-63
2023/04/13 03:34:42;;;;;;;4.30;3.90;;;;;;;20.78;57.07;98310.41;104407;1255;72131;-63
2023/04/13 03:37:14;;;;;;;4.70;3.60;;;;;;;20.77;56.73;98310.62;104451;1272;61565;-64
2023/04/13 03:39:45;;;;;;;7.10;3.30;;;;;;;20.74;57.16;98310.12;104774;1250;60482;-62
2023/04/13 03:42:17;;;;;;;5.60;4.00;;;;;;;20.72;57.13;98313.41;104327;1269;73189;-63
2023/04/13 03:44:51;;;;;;;6.10;3.90;;;;;;;20.59;57.64;98312.55;104442;1257;70189;-63
2023/04/13 03:47:20;;;;;;;3.60;3.30;;;;;;;20.55;58.03;98315.80;104727;1250;72020;-63
2023/04/13 03:49:49;;;;;;;3.70;3.40;;;;;;;20.57;58.49;98320.02;104384;1264;62374;-64
2023/04/13 03:52:18;;;;;;;4.60;3.50;;;;;;;20.62;58.13;98319.23;104455;1251;60503;-64
2023/04/13 03:54:52;;;;;;;3.80;3.50;;;;;;;20.52;58.34;98317.96;104485;1266;73867;-62
2023/04/13 03:57:21;;;;;;;6.20;3.80;;;;;;;20.50;58.52;98318.61;104456;1255;69832;-64
2023/04/13 03:59:50;;;;;;;3.70;3.40;;;;;;;20.57;58.51;98315.27;104445;1259;72015;-64
2023/04/13 04:02:26;;;;;;;4.50;4.10;;;;;;;20.59;58.53;98315.58;104703;1251;61087;-64
2023/04/13 04:04:55;;;;;;;5.90;4.10;;;;;;;20.61;58.10;98316.31;104816;1250;60540;-63
2023/04/13 04:07:24;;;;;;;8.20;4.00;;;;;;;20.56;58.63;98317.44;104480;1250;74048;-62
2023/04/13 04:09:53;;;;;;;8.10;4.10;;;;;;;20.56;58.81;98315.73;104970;1260;68541;-62
2023/04/13 04:12:22;;;;;;;6.10;3.90;;;;;;;20.60;58.92;98320.64;104522;1255;72605;-65
2023/04/13 04:14:51;;;;;;;3.80;3.50;;;;;;;20.65;59.16;98327.39;104579;1250;61820;-64
2023/04/13 04:18:40;;;;;;;7.10;3.90;;;;;;;19.78;72.91;98338.75;101419;1290;601517;-61
2023/04/13 04:21:11;;;;;;;4.70;4.00;;;;;;;21.13;60.05;98332.69;103742;1269;61299;-62
2023/04/13 04:23:40;;;;;;;4.40;4.10;;;;;;;21.25;58.62;98333.88;103929;1265;59496;-63
2023/04/13 04:26:12;;;;;;;6.70;4.80;;;;;;;21.17;58.49;98337.91;104095;1270;71485;-61
2023/04/13 04:28:49;;;;;;;5.60;4.40;;;;;;;21.06;59.15;98339.52;105543;1257;70453;-62
2023/04/13 04:31:20;;;;;;;4.90;4.30;;;;;;;21.02;59.60;98346.34;104197;1260;258796;-62
2023/04/13 04:33:52;;;;;;;5.20;4.70;;;;;;;21.00;59.95;98349.95;104609;1264;61996;-64
2023/04/13 04:36:22;;;;;;;4.70;4.20;;;;;;;21.05;59.31;98349.92;104427;1270;59458;-64
2023/04/13 04:39:01;;;;;;;5.30;4.40;;;;;;;21.04;59.66;98346.90;104383;1254;72933;-66
2023/04/13 04:41:36;;;;;;;7.10;4.50;;;;;;;21.08;59.40;98352.33;104370;1261;70602;-63
2023/04/13 04:44:06;;;;;;;7.50;4.20;;;;;;;21.13;59.37;98354.61;104353;1260;72165;-63
2023/04/13 04:46:40;;;;;;;5.00;4.40;;;;;;;21.19;58.80;98347.77;104532;1255;61443;-62
2023/04/13 04:49:11;;;;;;;5.80;4.30;;;;;;;21.27;58.60;98337.63;104510;1259;61567;-61
2023/04/13 04:51:40;;;;;;;4.40;4.00;;;;;;;21.29;58.50;98332.52;104738;1254;73153;-61
2023/04/13 04:54:09;;;;;;;5.20;4.60;;;;;;;21.29;58.47;98328.94;104352;1257;68508;-63
2023/04/13 04:56:38;;;;;;;7.50;3.90;;;;;;;21.21;58.49;98329.30;104657;1261;72859;-63
2023/04/13 04:59:09;;;;;;;5.60;4.30;;;;;;;21.16;58.97;98326.85;104614;1267;61215;-63
2023/04/13 05:01:45;;;;;;;4.30;3.90;;;;;;;21.19;58.89;98325.39;104358;1251;60419;-63
2023/04/13 05:04:14;;;;;;;6.80;4.10;;;;;;;21.18;59.19;98330.16;104669;1254;72444;-64
2023/04/13 05:06:43;;;;;;;5.00;4.50;;;;;;;21.19;59.02;98325.92;104422;1257;69317;-63
2023/04/13 05:09:17;;;;;;;4.50;4.10;;;;;;;21.13;59.34;98326.45;104350;1262;71977;-64
2023/04/13 05:11:50;;;;;;;4.80;4.10;;;;;;;21.05;59.55;98325.70;104673;1251;61497;-62
2023/04/13 05:14:19;;;;;;;7.40;4.30;;;;;;;20.97;59.77;98329.94;104309;1260;59769;-63
2023/04/13 05:16:50;;;;;;;5.00;4.00;;;;;;;21.01;59.90;98331.61;104359;1257;72832;-61
2023/04/13 05:19:24;;;;;;;4.40;3.90;;;;;;;21.07;59.54;98332.42;104398;1255;68904;-68
2023/04/13 05:22:00;;;;;;;4.40;4.00;;;;;;;21.11;59.41;98330.15;104418;1256;72817;-68
2023/04/13 05:24:34;;;;;;;5.80;4.60;;;;;;;21.13;59.51;98337.27;104607;1253;62913;-69
2023/04/13 05:27:08;;;;;;;4.90;4.10;;;;;;;21.08;59.92;98340.31;104460;1274;59610;-69
2023/04/13 05:29:37;;;;;;;5.30;4.80;;;;;;;21.16;59.66;98345.03;104708;1257;73268;-68
2023/04/13 05:32:06;;;;;;;4.90;4.50;;;;;;;21.18;59.50;98355.08;104532;1263;70438;-67
2023/04/13 05:34:37;;;;;;;5.10;4.70;;;;;;;21.23;59.60;98357.23;104409;1254;72716;-68
2023/04/13 05:37:13;;;;;;;5.20;4.70;;;;;;;21.37;59.08;98359.33;104450;1251;61601;-68
2023/04/13 05:39:44;;;;;;;5.60;4.30;;;;;;;21.49;58.51;98357.14;104415;1264;60247;-68
2023/04/13 05:42:14;;;;;;;5.00;4.60;;;;;;;21.54;58.12;98357.30;104352;1258;72296;-70
2023/04/13 05:44:46;;;;;;;5.00;4.60;;;;;;;21.53;58.42;98354.40;104448;1254;69129;-68
2023/04/13 05:47:17;;;;;;;8.00;4.80;;;;;;;21.55;58.14;98354.34;104592;1254;72753;-69
2023/04/13 05:49:46;;;;;;;5.40;4.80;;;;;;;21.55;57.87;98355.95;104529;1257;62352;-68
2023/04/13 05:52:20;;;;;;;4.90;4.50;;;;;;;21.64;58.29;98354.81;104617;1254;60401;-70
2023/04/13 05:54:49;;;;;;;4.60;4.20;;;;;;;21.67;57.78;98349.49;104528;1257;73659;-69
2023/04/13 05:57:22;;;;;;;7.20;5.00;;;;;;;21.71;57.68;98352.44;104447;1257;70976;-68
2023/04/13 05:59:53;;;;;;;4.80;4.30;;;;;;;21.70;57.52;98353.06;104501;1257;73193;-68
2023/04/13 06:02:25;;;;;;;6.70;4.60;;;;;;;21.71;57.13;98351.53;104743;1257;61382;-72
2023/04/13 06:04:55;;;;;;;6.10;4.90;;;;;;;21.78;57.32;98353.83;104394;1263;59675;-70
2023/04/13 06:07:24;;;;;;;8.10;4.30;;;;;;;21.85;57.36;98354.73;104597;1257;72875;-68
2023/04/13 06:09:53;;;;;;;5.70;4.40;;;;;;;21.84;57.69;98351.76;104458;1270;70499;-63
2023/04/13 06:12:31;;;;;;;;;;;;;;;21.86;58.16;98358.11;104380;1251;72210;-62
2023/04/13 06:15:01;;;;;;;4.40;3.30;;;;;;;21.92;57.54;98360.30;104418;1267;61150;-62
2023/04/13 06:17:31;;;;;;;4.50;4.10;;;;;;;21.94;57.28;98362.23;104488;1260;60673;-63
2023/04/13 06:19:59;;;;;;;4.10;3.80;;;;;;;21.93;57.35;98362.89;104386;1263;72397;-63
2023/04/13 06:22:29;;;;;;;5.50;4.10;;;;;;;21.93;56.67;98363.27;104431;1251;69030;-63
2023/04/13 06:24:58;;;;;;;4.20;3.80;;;;;;;21.92;57.33;98362.08;104374;1267;71945;-62
2023/04/13 06:27:33;;;;;;;6.10;4.00;;;;;;;21.92;57.47;98367.40;104645;1251;61038;-65
2023/04/13 06:30:04;;;;;;;4.00;3.60;;;;;;;21.90;57.49;98370.54;104499;1257;59727;-63
2023/04/13 06:32:35;;;;;;;4.80;3.60;;;;;;;21.91;56.93;98369.77;104424;1257;72281;-62
2023/04/13 06:35:04;;;;;;;6.30;4.00;;;;;;;21.86;57.40;98375.96;104391;1261;69411;-63
2023/04/13 06:37:41;;;;;;;5.50;4.50;;;;;;;22.05;57.40;98379.80;104289;1257;72248;-62
2023/04/13 06:40:13;;;;;;;5.20;3.90;;;;;;;22.07;56.26;98382.03;104303;1257;62734;-63
2023/04/13 06:42:52;;;;;;;5.20;4.70;;;;;;;22.10;56.73;98386.20;104370;1252;59816;-63
2023/04/13 06:45:32;;;;;;;4.90;4.40;;;;;;;22.15;55.87;98387.02;104433;1260;74221;-63
2023/04/13 06:48:04;;;;;;;4.60;4.10;;;;;;;22.13;55.56;98387.27;104491;1264;69717;-62
2023/04/13 06:50:33;;;;;;;6.00;4.40;;;;;;;22.12;55.56;98391.29;104715;1256;72356;-65
2023/04/13 06:53:03;;;;;;;4.80;4.40;;;;;;;22.17;56.23;98389.64;104559;1261;62622;-63
2023/04/13 06:55:32;;;;;;;4.80;4.30;;;;;;;22.26;56.01;98393.17;104355;1253;59771;-63
2023/04/13 06:58:02;;;;;;;7.40;3.60;;;;;;;22.37;55.20;98392.54;104303;1263;73914;-63
2023/04/13 07:00:30;;;;;;;4.80;4.30;;;;;;;22.38;55.16;98393.66;104275;1258;68557;-62
2023/04/13 07:03:01;;;;;;;5.20;4.70;;;;;;;22.42;55.25;98393.89;104299;1270;72299;-63
2023/04/13 07:05:30;;;;;;;5.80;4.60;;;;;;;22.50;54.46;98394.98;104855;1257;62179;-63
2023/04/13 07:08:05;;;;;;;6.00;4.30;;;;;;;22.46;54.83;98392.41;105040;1260;59764;-63
2023/04/13 07:10:38;;;;;;;6.00;4.80;;;;;;;22.41;54.92;98391.48;104352;1267;72016;-63
2023/04/13 07:13:11;;;;;;;5.00;4.60;;;;;;;22.40;54.37;98392.86;104652;1252;70012;-64
2023/04/13 07:15:39;;;;;;;6.10;4.70;;;;;;;22.43;55.23;98398.44;104426;1254;72662;-63
2023/04/13 07:18:08;;;;;;;7.60;5.10;;;;;;;22.53;55.32;98395.33;104358;1269;61086;-64
2023/04/13 07:20:38;;;;;;;4.80;4.40;;;;;;;22.52;55.12;98392.89;104560;1255;60505;-64
2023/04/13 07:23:08;;;;;;;9.10;4.70;;;;;;;22.62;55.75;98389.38;104785;1261;72373;-63
2023/04/13 07:25:37;;;;;;;4.60;4.10;;;;;;;22.78;55.96;98388.45;104614;1254;68919;-60
2023/04/13 07:28:07;;;;;;;10.30;4.60;;;;;;;22.82;54.84;98387.98;104630;1254;71623;-61
2023/04/13 07:30:36;;;;;;;5.30;4.80;;;;;;;22.83;54.86;98389.79;104584;1260;61899;-61
2023/04/13 07:33:05;;;;;;;5.60;4.80;;;;;;;22.83;54.66;98389.52;104932;1255;60525;-61
2023/04/13 07:35:54;;;;;;;5.20;4.70;;;;;;;22.81;54.79;98392.73;104547;1267;75590;-61
2023/04/13 07:38:26;;;;;;;5.30;4.80;;;;;;;22.75;54.28;98395.59;104657;1264;70875;-61
2023/04/13 07:40:55;;;;;;;5.00;4.60;;;;;;;22.77;54.61;98399.83;104692;1258;72732;-62
2023/04/13 07:43:26;;;;;;;6.30;4.30;;;;;;;22.89;54.44;98402.41;105063;1251;63656;-60
2023/04/13 07:45:56;;;;;;;8.30;4.60;;;;;;;23.06;53.67;98404.90;104523;1254;61395;-60
2023/04/13 07:48:26;;;;;;;5.50;4.30;;;;;;;23.17;53.57;98411.83;104720;1263;72389;-60
2023/04/13 07:50:59;;;;;;;5.20;4.20;;;;;;;23.26;52.37;98411.54;104675;1263;69598;-61
2023/04/13 07:53:28;;;;;;;5.00;4.50;;;;;;;23.31;52.38;98417.23;104487;1267;72074;-61
2023/04/13 07:55:57;;;;;;;4.70;4.30;;;;;;;23.42;52.34;98418.27;104642;1267;61204;-63
2023/04/13 07:58:30;;;;;;;5.90;5.30;;;;;;;23.55;52.39;98420.00;104646;1251;59945;-60
2023/04/13 08:00:59;;;;;;;4.80;4.40;;;;;;;23.57;51.60;98419.39;104384;1272;73166;-60
2023/04/13 08:03:32;;;;;;;6.10;5.00;;;;;;;23.57;52.00;98418.00;104872;1251;70240;-61
2023/04/13 08:06:08;;;;;;;8.40;5.70;;;;;;;23.54;51.82;98420.51;104652;1251;73181;-60
2023/04/13 08:08:37;;;;;;;4.80;4.30;;;;;;;23.56;51.72;98420.50;105263;1253;62270;-61
2023/04/13 08:11:07;;;;;;;5.70;4.20;;;;;;;23.47;50.95;98425.63;104490;1254;60102;-62
2023/04/13 08:13:39;;;;;;;5.00;4.00;;;;;;;23.38;51.97;98427.56;104520;1260;72039;-62
2023/04/13 08:16:09;;;;;;;5.40;4.30;;;;;;;23.36;52.07;98428.71;104652;1251;69134;-60
2023/04/13 08:18:41;;;;;;;7.40;3.70;;;;;;;23.41;52.36;98427.36;105012;1254;75010;-60
2023/04/13 08:21:10;;;;;;;5.00;3.60;;;;;;;23.40;52.32;98433.91;104621;1254;61062;-61
2023/04/13 08:23:41;;;;;;;4.00;3.40;;;;;;;23.43;52.01;98431.48;104559;1254;59779;-62
2023/04/13 08:26:17;;;;;;;4.10;3.70;;;;;;;23.40;51.89;98422.88;104627;1256;72162;-60
2023/04/13 08:28:47;;;;;;;5.80;3.70;;;;;;;23.47;51.86;98424.95;104457;1257;68648;-61
2023/04/13 08:31:20;;;;;;;4.60;3.60;;;;;;;23.52;51.48;98426.79;104503;1257;71725;-62
2023/04/13 08:33:56;;;;;;;6.40;3.90;;;;;;;23.48;51.53;98428.63;104837;1253;60891;-61
2023/04/13 08:36:26;;;;;;;3.70;3.30;;;;;;;23.46;51.40;98426.77;104811;1253;61094;-61
2023/04/13 08:39:08;;;;;;;5.50;3.90;;;;;;;23.51;51.14;98429.27;104310;1257;73652;-61
2023/04/13 08:41:39;;;;;;;4.40;3.00;;;;;;;23.56;51.27;98425.59;104335;1271;68570;-61
2023/04/13 08:44:11;;;;;;;6.10;3.50;;;;;;;23.60;50.88;98421.90;104201;1257;71669;-61
2023/04/13 08:46:44;;;;;;;4.80;3.60;;;;;;;23.61;50.46;98417.55;104267;1270;61864;-61
2023/04/13 08:49:13;;;;;;;6.50;4.10;;;;;;;23.59;50.82;98414.70;104413;1266;60484;-61
2023/04/13 08:52:03;;;;;;;5.70;4.10;;;;;;;23.64;51.02;98418.02;104498;1254;73906;-60
2023/04/13 08:54:34;;;;;;;5.50;3.60;;;;;;;23.60;50.15;98421.01;104829;1253;69175;-61
2023/04/13 08:57:03;;;;;;;7.10;3.40;;;;;;;23.59;50.50;98422.95;104779;1257;72766;-61
2023/04/13 08:59:32;;;;;;;6.40;4.10;;;;;;;23.61;50.81;98418.08;104385;1255;61973;-61
2023/04/13 09:02:05;;;;;;;6.40;3.90;;;;;;;23.59;50.45;98418.13;104259;1254;60613;-60
2023/04/13 09:04:38;;;;;;;8.60;3.80;;;;;;;23.56;50.87;98422.37;104301;1255;74364;-60
2023/04/13 09:07:07;;;;;;;5.60;4.20;;;;;;;23.58;51.19;98422.19;104296;1257;68735;-61
2023/04/13 09:09:38;;;;;;;4.30;3.70;;;;;;;23.66;50.68;98427.83;104321;1257;73172;-63
2023/04/13 09:12:09;;;;;;;5.40;4.10;;;;;;;23.73;50.88;98436.61;104217;1254;61417;-63
2023/04/13 09:14:38;;;;;;;6.50;4.60;;;;;;;23.73;50.74;98435.80;104661;1253;60562;-63
2023/04/13 09:17:07;;;;;;;5.80;4.30;;;;;;;23.66;50.08;98439.06;104715;1257;73334;-65
2023/04/13 09:19:38;;;;;;;5.10;4.00;;;;;;;23.54;50.36;98437.38;104600;1263;69332;-62
2023/04/13 09:22:14;;;;;;;5.50;4.10;;;;;;;23.49;50.51;98431.77;104876;1260;71869;-66
2023/04/13 09:24:43;;;;;;;4.90;3.80;;;;;;;23.50;50.73;98434.18;104601;1254;61196;-67
2023/04/13 09:27:22;;;;;;;4.90;3.80;;;;;;;23.55;49.91;98434.33;104768;1251;61336;-63
2023/04/13 09:29:54;;;;;;;7.80;4.60;;;;;;;23.68;50.46;98433.19;104484;1257;74060;-64
2023/04/13 09:32:24;;;;;;;7.10;3.90;;;;;;;23.81;49.79;98432.78;104481;1256;68896;-66
2023/04/13 09:34:58;;;;;;;4.30;3.80;;;;;;;23.95;49.50;98435.29;104531;1254;72972;-63
2023/04/13 09:37:27;;;;;;;11.50;3.80;;;;;;;24.07;48.58;98435.11;104414;1257;61605;-63
2023/04/13 09:40:12;;;;;;;10.20;3.90;;;;;;;24.00;48.53;98432.65;104818;1252;60509;-64
2023/04/13 09:43:03;;;;;;;3.80;3.50;;;;;;;24.05;49.10;98431.23;104564;1254;74222;-62
2023/04/13 09:45:37;;;;;;;6.40;3.90;;;;;;;24.05;48.17;98429.39;104378;1255;69495;-61
2023/04/13 09:48:20;;;;;;;7.40;4.00;;;;;;;23.93;47.96;98438.90;104487;1258;71765;-61
2023/04/13 09:50:58;;;;;;;6.60;4.20;;;;;;;23.85;47.39;98435.87;104444;1256;62639;-63
2023/04/13 09:53:38;;;;;;;7.30;4.30;;;;;;;23.80;47.73;98441.83;104373;1263;60612;-60
2023/04/13 09:56:07;;;;;;;5.30;3.50;;;;;;;23.81;47.89;98444.92;104576;1256;73659;-63
2023/04/13 09:58:42;;;;;;;5.70;4.00;;;;;;;23.81;48.38;98440.67;104897;1256;69185;-63
2023/04/13 10:01:13;;;;;;;8.10;4.00;;;;;;;23.84;48.41;98443.20;104516;1267;72053;-62
2023/04/13 10:03:42;;;;;;;5.50;3.80;;;;;;;23.81;47.64;98445.62;104414;1252;61397;-61
2023/04/13 10:06:12;;;;;;;6.60;4.60;;;;;;;23.85;48.10;98447.54;104641;1258;60580;-62
2023/04/13 10:08:42;;;;;;;7.80;4.20;;;;;;;23.92;48.04;98448.83;104772;1260;73819;-62
2023/04/13 10:11:13;;;;;;;7.90;5.30;;;;;;;23.93;48.91;98445.30;104624;1255;69607;-63
2023/04/13 10:13:51;;;;;;;6.60;4.20;;;;;;;23.90;47.81;98441.17;104903;1254;73249;-62
2023/04/13 10:17:06;;;;;;;5.20;4.30;;;;;;;24.01;47.90;98437.95;104560;1253;60796;-62
2023/04/13 10:19:46;;;;;;;6.80;4.20;;;;;;;24.14;48.07;98444.52;104765;1256;61185;-64
2023/04/13 10:22:15;;;;;;;6.00;4.60;;;;;;;24.13;48.39;98443.52;105233;1251;73179;-62
2023/04/13 10:24:45;;;;;;;13.10;4.80;;;;;;;24.11;47.99;98445.55;105029;1254;68944;-62
2023/04/13 10:27:19;;;;;;;5.30;4.50;;;;;;;24.15;48.63;98448.63;105006;1253;72249;-61
2023/04/13 10:29:48;;;;;;;7.00;5.10;;;;;;;24.22;48.78;98449.40;104719;1251;61898;-63
2023/04/13 10:32:25;;;;;;;7.80;4.50;;;;;;;24.26;47.87;98448.59;104934;1256;60552;-62
2023/04/13 10:34:54;;;;;;;5.20;4.30;;;;;;;24.26;47.98;98448.98;104397;1260;73076;-61
2023/04/13 10:37:26;;;;;;;6.10;4.00;;;;;;;24.38;47.47;98453.79;104829;1254;69716;-62
2023/04/13 10:40:07;;;;;;;5.50;4.20;;;;;;;24.57;47.08;98450.79;104714;1254;71892;-62
2023/04/13 10:42:40;;;;;;;4.80;4.10;;;;;;;24.72;46.80;98451.41;104383;1255;60863;-61
2023/04/13 10:45:24;;;;;;;8.00;3.50;;;;;;;24.74;46.47;98451.81;104939;1251;61344;-62
2023/04/13 10:47:54;;;;;;;5.50;3.30;;;;;;;24.71;46.02;98450.83;105218;1254;73876;-63
2023/04/13 10:50:24;;;;;;;9.50;4.00;;;;;;;24.72;47.14;98453.36;104523;1270;69643;-60
2023/04/13 10:53:06;;;;;;;4.20;3.40;;;;;;;24.59;46.22;98462.41;105506;1251;73230;-60
2023/04/13 10:55:35;;;;;;;6.90;3.40;;;;;;;24.52;46.11;98466.52;105338;1254;62004;-60
2023/04/13 10:58:13;;;;;;;4.30;3.30;;;;;;;24.44;46.78;98473.30;105074;1253;60485;-61
2023/04/13 11:00:42;;;;;;;5.90;3.50;;;;;;;24.43;46.88;98475.06;104967;1253;75214;-60
2023/04/13 11:03:14;;;;;;;3.90;2.90;;;;;;;24.38;46.34;98479.12;104615;1256;68821;-61
2023/04/13 11:05:57;;;;;;;6.40;3.40;;;;;;;24.41;46.87;98480.86;104760;1251;72088;-61
2023/04/13 11:08:27;;;;;;;5.20;3.40;;;;;;;24.49;46.47;98480.75;105014;1264;61243;-62
2023/04/13 11:10:56;;;;;;;6.10;3.10;;;;;;;24.49;46.42;98481.69;104350;1270;59640;-61
2023/04/13 11:13:25;;;;;;;3.70;2.80;;;;;;;24.44;46.48;98480.46;104519;1260;73462;-62
2023/04/13 11:16:01;;;;;;;4.20;3.40;;;;;;;24.36;46.45;98484.46;104681;1259;70192;-62
2023/04/13 11:18:31;;;;;;;4.40;2.70;;;;;;;24.38;45.60;98491.27;105104;1253;72360;-61
2023/04/13 11:21:02;;;;;;;3.80;2.60;;;;;;;24.35;45.36;98489.36;104715;1251;63777;-61
2023/04/13 11:23:35;;;;;;;3.20;2.70;;;;;;;24.30;45.57;98488.21;104616;1257;60548;-61
2023/04/13 11:26:04;;;;;;;3.10;2.90;;;;;;;24.31;45.99;98490.16;104535;1251;73147;-61
2023/04/13 11:28:40;;;;;;;4.20;2.80;;;;;;;24.27;45.87;98488.08;104471;1260;69444;-61
2023/04/13 11:31:10;;;;;;;6.50;2.90;;;;;;;24.28;45.95;98487.92;104540;1251;71915;-61
2023/04/13 11:33:40;;;;;;;4.10;2.70;;;;;;;24.27;45.94;98487.30;104487;1251;61163;-62
2023/04/13 11:36:10;;;;;;;3.10;2.60;;;;;;;24.24;45.92;98479.96;104875;1253;60448;-62
2023/04/13 11:38:40;;;;;;;4.50;3.30;;;;;;;24.31;46.16;98482.80;104506;1251;73316;-61
2023/04/13 11:41:09;;;;;;;3.40;2.50;;;;;;;24.33;45.61;98484.66;104663;1263;69555;-60
2023/04/13 11:43:44;;;;;;;5.50;3.00;;;;;;;24.34;45.12;98481.90;104619;1253;72516;-61
2023/04/13 11:46:21;;;;;;;3.40;2.60;;;;;;;24.33;45.56;98484.26;104677;1254;61034;-60
2023/04/13 11:48:51;;;;;;;3.90;2.40;;;;;;;24.35;45.52;98484.05;104833;1260;60396;-61
2023/04/13 11:51:19;;;;;;;6.00;2.60;;;;;;;24.31;44.33;98487.39;104716;1256;73002;-60